Terminal Aerodrome Forecast
Issued by NWS Goodland, KS

Home | Current Version | Previous Version | Text Only | Print | Product List | Glossary On
Versions: 1 2 3 4 5 6 7 8 9 10 11 12 13 14 15 16
982
FTUS43 KGLD 161734
TAFGLD
TAF
KGLD 161734Z 1618/1718 16015G23KT P6SM SKC
     FM170100 13013KT P6SM SKC
     FM170400 14011KT P6SM SKC WS020/17040KT
     FM170800 14011KT P6SM SKC
     FM171200 16010KT P6SM SCT045
     FM171300 17011KT P6SM FEW150 WS020/24030KT=

USA.gov is the U.S. government's official web portal to all federal, state and local government web resources and services.